Time;durP1;ratioP1;P1;durP2;ratioP2;P2;SDS_P1;SDS_P2;PMS_P1;PMS_P2;Temp;Humidity;BMP_temperature;BMP_pressure;BME280_temperature;BME280_humidity;BME280_pressure;Samples;Min_cycle;Max_cycle;Signal;HPM_P1;HPM_P2
2022/02/04 00:07:41;;;;;;;8.43;7.40;;;5.70;99.90;;;;;;4989760;28;20040;-74
2022/02/04 00:21:08;;;;;;;8.02;7.22;;;5.50;99.90;;;;;;4989326;28;20037;-74
2022/02/04 00:23:35;;;;;;;7.53;6.72;;;5.50;99.90;;;;;;4995955;28;20381;-74
2022/02/04 00:26:24;;;;;;;7.80;7.00;;;5.60;99.90;;;;;;4995695;28;20027;-74
2022/02/04 00:29:00;;;;;;;7.93;7.10;;;5.70;99.90;;;;;;4982380;28;20089;-75
2022/02/04 00:31:40;;;;;;;8.00;6.70;;;5.50;99.90;;;;;;4987330;28;20014;-75
2022/02/04 00:34:10;;;;;;;7.03;6.32;;;5.50;99.90;;;;;;4979587;28;20400;-76
2022/02/04 00:36:46;;;;;;;7.13;6.43;;;5.50;99.90;;;;;;4995612;28;20126;-76
2022/02/04 00:39:26;;;;;;;7.82;6.20;;;5.50;99.90;;;;;;4990310;28;20062;-77
2022/02/04 00:41:52;;;;;;;6.82;6.20;;;5.50;99.90;;;;;;4988910;28;20436;-77
2022/02/04 00:44:25;;;;;;;6.80;6.10;;;5.40;99.90;;;;;;4983159;28;20023;-77
2022/02/04 00:46:55;;;;;;;6.93;6.32;;;5.40;99.90;;;;;;4976645;28;20492;-76
2022/02/04 00:52:10;;;;;;;7.22;6.50;;;5.40;99.90;;;;;;4982213;28;20110;-76
2022/02/04 00:54:58;;;;;;;8.68;7.10;;;5.50;99.90;;;;;;4966458;28;20502;-76
2022/02/04 01:25:55;;;;;;;10.30;9.20;;;5.10;99.90;;;;;;4983362;28;20034;-75
2022/02/04 01:27:28;;;;;;;13.23;10.93;;;5.00;99.90;;;;;;4981801;28;20321;-75
2022/02/04 01:30:14;;;;;;;13.10;11.57;;;4.90;99.90;;;;;;4970468;28;20027;-76
2022/02/04 01:32:39;;;;;;;13.38;11.98;;;4.90;99.90;;;;;;4988140;28;20098;-75
2022/02/04 01:35:05;;;;;;;13.82;12.32;;;4.90;99.90;;;;;;4984282;28;20158;-75
2022/02/04 01:37:31;;;;;;;14.82;12.55;;;4.90;99.90;;;;;;4981292;28;20030;-75
2022/02/04 01:39:57;;;;;;;16.75;13.20;;;4.90;99.90;;;;;;4994269;28;20038;-76
2022/02/04 01:42:22;;;;;;;15.77;13.55;;;4.90;99.90;;;;;;4991817;28;20502;-74
2022/02/04 01:44:48;;;;;;;15.60;13.90;;;4.90;99.90;;;;;;4966305;28;20484;-74
2022/02/04 01:47:14;;;;;;;17.98;15.82;;;4.90;99.90;;;;;;4963649;28;20033;-74
2022/02/04 01:49:39;;;;;;;17.67;15.15;;;4.80;99.90;;;;;;4982012;28;20431;-75
2022/02/04 01:52:05;;;;;;;17.48;15.50;;;4.80;99.90;;;;;;4978458;28;20076;-74
2022/02/04 01:54:31;;;;;;;21.05;16.60;;;4.80;99.90;;;;;;4983744;28;20042;-74
2022/02/04 01:56:56;;;;;;;19.23;16.70;;;4.80;99.90;;;;;;4993988;28;20032;-74
2022/02/04 01:59:22;;;;;;;22.27;17.75;;;4.70;99.90;;;;;;4993885;28;20030;-74
2022/02/04 02:01:47;;;;;;;22.20;18.02;;;4.60;99.90;;;;;;4980744;28;20035;-74
2022/02/04 02:04:14;;;;;;;24.55;18.83;;;4.60;99.90;;;;;;4985541;28;20054;-73
2022/02/04 02:06:57;;;;;;;22.90;18.77;;;4.60;99.90;;;;;;4987207;28;20030;-73
2022/02/04 02:09:30;;;;;;;23.75;18.52;;;4.60;99.90;;;;;;4984931;28;20030;-73
2022/02/04 02:11:59;;;;;;;25.15;19.98;;;4.60;99.90;;;;;;5004649;28;20025;-73
2022/02/04 02:14:28;;;;;;;27.08;19.50;;;4.60;99.90;;;;;;4994379;28;20169;-73
2022/02/04 02:36:49;;;;;;;27.98;21.35;;;4.50;99.90;;;;;;4988533;28;20038;-73
2022/02/04 02:44:31;;;;;;;34.45;23.98;;;4.50;99.90;;;;;;4980563;28;20026;-74
2022/02/04 02:50:03;;;;;;;28.98;22.17;;;4.50;99.90;;;;;;4993083;28;20039;-74
2022/02/04 02:52:41;;;;;;;29.30;23.23;;;4.50;99.90;;;;;;4979749;28;20023;-74
2022/02/04 02:58:08;;;;;;;29.67;21.88;;;4.50;99.90;;;;;;5004354;28;20059;-74
2022/02/04 03:03:09;;;;;;;26.17;20.67;;;4.50;99.90;;;;;;4993200;28;20026;-74
2022/02/04 03:05:35;;;;;;;25.15;20.45;;;4.50;99.90;;;;;;4979820;28;20034;-74
2022/02/04 03:08:01;;;;;;;27.15;20.77;;;4.50;99.90;;;;;;4992689;28;20026;-75
2022/02/04 03:10:26;;;;;;;25.65;20.42;;;4.50;99.90;;;;;;4985963;28;20377;-73
2022/02/04 03:12:53;;;;;;;25.05;20.77;;;4.50;99.90;;;;;;4986070;28;20031;-73
2022/02/04 03:15:20;;;;;;;25.38;20.92;;;4.50;99.90;;;;;;4967584;28;20033;-72
2022/02/04 03:17:48;;;;;;;27.20;21.58;;;4.50;99.90;;;;;;4992671;28;20026;-72
2022/02/04 03:20:16;;;;;;;29.48;21.35;;;4.50;99.90;;;;;;4973067;28;20029;-72
2022/02/04 03:22:42;;;;;;;28.05;21.40;;;4.50;99.90;;;;;;4986747;28;20038;-73
2022/02/04 03:25:11;;;;;;;25.13;20.80;;;4.60;99.90;;;;;;4985679;28;20034;-72
2022/02/04 03:27:45;;;;;;;21.60;18.88;;;4.50;99.90;;;;;;4986809;28;20022;-73
2022/02/04 03:30:19;;;;;;;26.42;21.55;;;4.50;99.90;;;;;;4991145;28;20049;-73
2022/02/04 03:32:51;;;;;;;28.67;22.98;;;4.60;99.90;;;;;;5007645;28;20472;-73
2022/02/04 03:35:21;;;;;;;27.38;22.02;;;4.60;99.90;;;;;;4981851;28;20027;-74
2022/02/04 03:37:47;;;;;;;27.85;21.63;;;4.60;99.90;;;;;;4985744;28;20437;-74
2022/02/04 03:40:13;;;;;;;29.73;22.13;;;4.60;99.90;;;;;;4983898;28;20084;-74
2022/02/04 03:42:38;;;;;;;29.23;22.33;;;4.80;99.90;;;;;;4974908;28;20054;-74
2022/02/04 03:45:04;;;;;;;27.15;20.90;;;4.70;99.90;;;;;;4992412;28;20138;-72
2022/02/04 03:47:30;;;;;;;27.60;21.15;;;4.70;99.90;;;;;;4979151;28;20041;-72
2022/02/04 03:49:55;;;;;;;24.58;19.65;;;4.70;99.90;;;;;;4981228;28;20520;-73
2022/02/04 03:52:21;;;;;;;25.85;20.48;;;4.70;99.90;;;;;;4959868;28;20385;-72
2022/02/04 03:54:46;;;;;;;24.13;20.55;;;4.70;99.90;;;;;;4981480;28;20026;-72
2022/02/04 03:57:12;;;;;;;23.92;18.73;;;4.70;99.90;;;;;;4985838;28;20042;-74
2022/02/04 03:59:37;;;;;;;24.60;20.77;;;4.60;99.90;;;;;;4965827;28;20026;-73
2022/02/04 04:02:03;;;;;;;22.30;18.70;;;4.60;99.90;;;;;;4992011;28;20033;-73
2022/02/04 04:04:32;;;;;;;25.35;20.70;;;4.50;99.90;;;;;;4964059;28;20027;-73
2022/02/04 04:06:59;;;;;;;23.48;19.45;;;4.50;99.90;;;;;;4968192;28;20037;-73
2022/02/04 04:09:24;;;;;;;26.02;20.33;;;4.60;99.90;;;;;;4983880;28;20535;-73
2022/02/04 04:11:50;;;;;;;25.58;21.42;;;4.50;99.90;;;;;;4991923;28;20030;-74
2022/02/04 04:14:17;;;;;;;23.35;19.42;;;4.50;99.90;;;;;;4992070;28;20026;-74
2022/02/04 04:16:43;;;;;;;20.30;17.88;;;4.50;99.90;;;;;;4987698;28;20539;-75
2022/02/04 04:19:09;;;;;;;23.58;19.48;;;4.50;99.90;;;;;;4991958;28;20027;-74
2022/02/04 04:21:35;;;;;;;22.63;18.00;;;4.50;99.90;;;;;;4978843;28;20026;-75
2022/02/04 04:24:00;;;;;;;21.60;18.05;;;4.50;99.90;;;;;;4991940;28;20033;-73
2022/02/04 04:26:26;;;;;;;21.58;19.13;;;4.70;99.90;;;;;;4991802;28;20022;-74
2022/02/04 04:28:52;;;;;;;25.58;20.08;;;4.60;99.90;;;;;;4980968;28;20393;-74
2022/02/04 04:31:19;;;;;;;23.27;18.23;;;4.70;99.90;;;;;;4989759;28;20030;-75
2022/02/04 04:33:45;;;;;;;21.02;17.10;;;4.70;99.90;;;;;;4991858;28;20503;-74
2022/02/04 04:36:11;;;;;;;16.55;14.85;;;4.60;99.90;;;;;;4961426;28;20377;-75
2022/02/04 04:38:43;;;;;;;17.88;15.88;;;4.70;99.90;;;;;;4991798;28;20042;-75
2022/02/04 04:41:34;;;;;;;18.75;16.77;;;4.60;99.90;;;;;;4986641;28;20023;-75
2022/02/04 04:44:46;;;;;;;17.08;15.27;;;4.60;99.90;;;;;;4985376;28;20081;-75
2022/02/04 05:28:17;;;;;;;16.30;13.52;;;4.30;99.90;;;;;;4988665;28;20086;-74
2022/02/04 05:30:42;;;;;;;;;;;4.30;99.90;;;;;;4988004;28;20053;-74
2022/02/04 05:33:07;;;;;;;17.60;14.37;;;4.30;99.90;;;;;;4994569;28;19952;-74
2022/02/04 05:35:33;;;;;;;18.00;15.25;;;4.30;99.90;;;;;;4994512;28;20042;-74
2022/02/04 05:37:59;;;;;;;16.77;14.85;;;4.20;99.90;;;;;;4981345;28;20037;-74
2022/02/04 05:40:29;;;;;;;19.60;16.42;;;4.20;99.90;;;;;;4964291;28;20095;-74
2022/02/04 05:43:00;;;;;;;16.63;14.93;;;4.10;99.90;;;;;;4970210;28;20117;-74
2022/02/04 05:45:30;;;;;;;18.08;16.10;;;4.10;99.90;;;;;;4971233;28;20547;-74
2022/02/04 05:47:59;;;;;;;18.95;16.45;;;4.20;99.90;;;;;;4994277;28;20026;-74
2022/02/04 05:55:47;;;;;;;18.02;15.75;;;4.20;99.90;;;;;;4990973;28;20030;-76
2022/02/04 06:00:46;;;;;;;17.48;14.57;;;4.10;99.90;;;;;;4987798;28;20061;-76
2022/02/04 06:24:36;;;;;;;79.95;58.67;;;4.10;99.90;;;;;;4987646;28;20029;-76
2022/02/04 06:27:02;;;;;;;19.13;17.10;;;4.30;99.90;;;;;;4966108;28;20026;-76
2022/02/04 06:29:27;;;;;;;24.85;21.05;;;4.20;99.90;;;;;;4980125;28;20493;-76
2022/02/04 06:31:53;;;;;;;21.05;18.42;;;4.20;99.90;;;;;;4984160;28;20022;-76
2022/02/04 06:34:19;;;;;;;21.23;18.92;;;4.20;99.90;;;;;;4987197;28;20468;-76
2022/02/04 06:36:44;;;;;;;19.52;17.05;;;4.00;99.90;;;;;;4982837;28;20030;-76
2022/02/04 06:39:10;;;;;;;15.77;14.15;;;3.90;99.90;;;;;;4987754;28;20034;-76
2022/02/04 06:41:35;;;;;;;16.35;14.35;;;4.00;99.90;;;;;;4984053;28;20025;-76
2022/02/04 06:44:02;;;;;;;16.98;14.40;;;4.00;99.90;;;;;;4989162;28;20034;-76
2022/02/04 06:46:31;;;;;;;19.35;15.90;;;4.10;99.90;;;;;;4972591;28;20084;-75
2022/02/04 06:48:57;;;;;;;21.52;16.92;;;4.10;99.90;;;;;;4992893;28;20473;-77
2022/02/04 06:51:22;;;;;;;20.92;17.90;;;4.10;99.90;;;;;;4983304;28;20041;-76
2022/02/04 06:53:48;;;;;;;19.42;16.83;;;4.10;99.90;;;;;;4987209;28;20030;-76
2022/02/04 06:56:14;;;;;;;21.90;17.10;;;4.10;99.90;;;;;;4961378;28;20097;-76
2022/02/04 06:58:40;;;;;;;21.25;18.05;;;4.30;99.90;;;;;;4979574;28;20113;-76
2022/02/04 07:01:05;;;;;;;19.02;15.88;;;4.20;99.90;;;;;;4965189;28;20026;-76
2022/02/04 07:03:32;;;;;;;24.38;18.00;;;4.20;99.90;;;;;;4986402;28;20469;-76
2022/02/04 07:06:00;;;;;;;20.48;17.00;;;4.20;99.90;;;;;;4982734;28;20173;-76
2022/02/04 07:08:32;;;;;;;19.85;16.30;;;4.10;99.90;;;;;;4989991;28;20042;-76
2022/02/04 07:13:30;;;;;;;20.25;17.13;;;4.10;99.90;;;;;;4992403;28;20612;-76
2022/02/04 07:16:23;;;;;;;18.50;14.85;;;4.20;99.90;;;;;;4975306;28;20026;-76
2022/02/04 07:21:28;;;;;;;21.50;16.65;;;4.20;99.90;;;;;;4989363;28;20084;-76
2022/02/04 07:23:53;;;;;;;26.30;20.60;;;4.20;99.90;;;;;;4989517;28;20030;-76
2022/02/04 07:26:19;;;;;;;19.67;16.83;;;4.20;99.90;;;;;;4991096;28;20109;-76
2022/02/04 07:28:44;;;;;;;20.73;17.13;;;4.20;99.90;;;;;;4991914;28;20547;-76
2022/02/04 07:31:12;;;;;;;23.90;17.83;;;4.20;99.90;;;;;;4970192;28;20034;-76
2022/02/04 07:33:48;;;;;;;31.35;24.55;;;4.30;99.90;;;;;;4974378;28;20026;-76
2022/02/04 07:41:39;;;;;;;22.80;17.27;;;4.30;99.90;;;;;;4983116;28;20031;-76
2022/02/04 07:44:05;;;;;;;20.73;16.33;;;4.40;99.90;;;;;;4985872;28;20393;-76
2022/02/04 07:46:31;;;;;;;20.27;15.57;;;4.40;99.90;;;;;;4972084;28;20018;-76
2022/02/04 07:48:57;;;;;;;20.83;15.50;;;4.40;99.90;;;;;;4974303;28;20056;-76
2022/02/04 07:51:22;;;;;;;17.48;14.70;;;4.40;99.90;;;;;;4991992;28;20030;-74
2022/02/04 07:53:48;;;;;;;17.65;15.15;;;4.40;99.90;;;;;;4986983;28;20022;-75
2022/02/04 07:56:20;;;;;;;18.45;14.63;;;4.40;99.90;;;;;;4981781;28;20014;-76
2022/02/04 07:58:54;;;;;;;104.88;68.25;;;4.40;99.90;;;;;;4991960;28;20028;-76
2022/02/04 08:01:25;;;;;;;159.80;88.82;;;4.40;99.90;;;;;;4974519;28;20034;-76
2022/02/04 08:03:56;;;;;;;131.73;75.60;;;4.50;99.90;;;;;;4979869;28;20023;-76
2022/02/04 08:06:24;;;;;;;95.70;61.65;;;4.50;99.90;;;;;;4991714;28;20022;-76
2022/02/04 08:09:00;;;;;;;77.95;52.25;;;4.50;99.90;;;;;;4991821;28;20057;-76
2022/02/04 08:14:09;;;;;;;47.20;35.35;;;4.50;99.90;;;;;;4992073;28;20473;-76
2022/02/04 08:24:50;;;;;;;18.33;15.05;;;4.60;99.90;;;;;;4994279;28;20033;-76
2022/02/04 08:27:43;;;;;;;17.05;14.57;;;4.70;99.90;;;;;;4995667;28;20026;-76
2022/02/04 08:51:34;;;;;;;14.82;12.05;;;4.80;99.90;;;;;;4995383;28;20050;-76
2022/02/04 08:54:22;;;;;;;11.13;9.68;;;4.90;99.90;;;;;;4993213;28;20065;-76
2022/02/04 08:56:58;;;;;;;10.48;9.10;;;4.80;99.90;;;;;;4991330;28;20104;-75
2022/02/04 09:01:57;;;;;;;9.40;8.33;;;4.80;99.90;;;;;;4995098;28;20024;-76
2022/02/04 09:04:32;;;;;;;10.43;9.32;;;4.90;99.90;;;;;;4998790;28;20496;-76
2022/02/04 09:07:04;;;;;;;10.25;9.02;;;5.00;99.90;;;;;;4992430;28;20536;-74
2022/02/04 09:10:16;;;;;;;10.70;9.60;;;5.00;99.90;;;;;;4999928;28;20032;-75
2022/02/04 09:20:25;;;;;;;9.35;7.75;;;5.10;99.90;;;;;;4994098;28;20038;-76
2022/02/04 09:22:51;;;;;;;8.40;7.45;;;5.10;99.90;;;;;;4994772;28;20029;-75
2022/02/04 09:25:17;;;;;;;8.95;7.70;;;5.20;99.90;;;;;;4981634;28;20022;-76
2022/02/04 09:27:43;;;;;;;8.32;7.22;;;5.30;99.90;;;;;;4994642;28;20463;-75
2022/02/04 09:30:15;;;;;;;8.52;6.88;;;5.30;99.90;;;;;;4981727;28;20113;-76
2022/02/04 09:32:41;;;;;;;7.70;6.28;;;5.20;99.90;;;;;;4994447;28;20033;-76
2022/02/04 09:35:12;;;;;;;6.65;5.25;;;5.30;99.90;;;;;;4994148;28;20026;-76
2022/02/04 09:37:38;;;;;;;6.63;5.28;;;5.20;99.90;;;;;;4993128;28;20604;-75
2022/02/04 09:40:06;;;;;;;6.05;5.45;;;5.20;99.90;;;;;;4982470;28;20373;-74
2022/02/04 09:42:32;;;;;;;7.28;5.70;;;5.30;99.90;;;;;;4991727;28;20026;-74
2022/02/04 09:44:59;;;;;;;6.72;6.03;;;5.30;99.90;;;;;;4994158;28;20366;-74
2022/02/04 09:47:34;;;;;;;7.07;5.80;;;5.30;99.90;;;;;;4990502;28;20050;-75
2022/02/04 09:50:02;;;;;;;5.72;5.13;;;5.30;99.90;;;;;;4976434;28;20027;-75
2022/02/04 10:09:33;;;;;;;7.60;6.13;;;5.50;99.90;;;;;;4993770;28;20265;-75
2022/02/04 10:12:12;;;;;;;6.18;5.22;;;5.50;99.90;;;;;;4993184;28;20041;-77
2022/02/04 10:14:52;;;;;;;6.93;5.50;;;5.40;99.90;;;;;;4988262;28;20018;-74
2022/02/04 10:17:25;;;;;;;5.72;4.80;;;5.50;99.90;;;;;;4981418;28;20329;-74
2022/02/04 10:19:57;;;;;;;5.82;5.22;;;5.70;99.90;;;;;;4993404;28;20030;-74
2022/02/04 10:22:26;;;;;;;5.25;4.75;;;5.70;99.90;;;;;;4985670;28;20109;-75
2022/02/04 10:25:01;;;;;;;5.90;5.10;;;5.60;99.90;;;;;;4978613;28;20034;-74
2022/02/04 10:27:33;;;;;;;5.38;4.88;;;5.70;99.90;;;;;;4993389;28;20052;-75
2022/02/04 10:30:01;;;;;;;4.70;4.30;;;5.70;99.90;;;;;;4980673;28;20061;-75
2022/02/04 10:32:43;;;;;;;5.28;4.65;;;5.70;99.90;;;;;;4992977;28;20029;-74
2022/02/04 10:35:20;;;;;;;5.07;4.57;;;5.60;99.90;;;;;;4970703;28;20113;-75
2022/02/04 10:38:11;;;;;;;5.82;4.70;;;5.70;99.90;;;;;;4993223;28;20097;-75
2022/02/04 10:46:30;;;;;;;5.30;4.60;;;5.70;99.90;;;;;;4992850;28;20037;-74
2022/02/04 10:54:53;;;;;;;4.47;4.07;;;5.80;99.90;;;;;;4992797;28;20034;-75
2022/02/04 10:57:36;;;;;;;4.70;4.30;;;5.90;99.90;;;;;;4992659;28;20396;-75
2022/02/04 11:00:21;;;;;;;5.07;4.55;;;5.90;99.90;;;;;;4992913;28;20033;-74
2022/02/04 11:05:24;;;;;;;4.50;4.10;;;5.80;99.90;;;;;;4993098;28;20492;-75
2022/02/04 11:10:47;;;;;;;4.90;4.50;;;5.80;99.90;;;;;;4991790;28;20113;-73
2022/02/04 11:22:10;;;;;;;5.00;4.50;;;5.70;99.90;;;;;;4989773;28;20025;-74
2022/02/04 11:33:35;;;;;;;5.07;4.53;;;5.90;99.90;;;;;;4987440;28;20388;-75
2022/02/04 11:35:40;;;;;;;5.00;4.50;;;5.80;99.90;;;;;;4979355;28;20048;-75
2022/02/04 11:54:33;;;;;;;4.22;3.83;;;5.80;99.90;;;;;;4992129;28;20396;-75
2022/02/04 11:56:58;;;;;;;4.80;4.20;;;5.90;99.90;;;;;;4969180;28;20027;-76
2022/02/04 11:59:36;;;;;;;4.63;4.22;;;5.80;99.90;;;;;;4994708;28;20153;-75
2022/02/04 12:02:22;;;;;;;4.50;4.10;;;5.90;99.90;;;;;;4992872;28;20485;-75
2022/02/04 12:04:48;;;;;;;;;;;6.00;99.90;;;;;;4992644;28;20101;-76
2022/02/04 12:07:45;;;;;;;5.13;4.70;;;6.00;99.90;;;;;;4996008;28;20059;-75
2022/02/04 12:10:13;;;;;;;;;;;6.00;99.90;;;;;;4994734;28;20030;-75
2022/02/04 12:12:54;;;;;;;4.75;4.35;;;6.00;99.90;;;;;;4992649;28;19952;-75
2022/02/04 12:15:29;;;;;;;4.35;3.95;;;5.90;99.90;;;;;;4972646;28;20014;-76
2022/02/04 12:17:56;;;;;;;3.75;3.40;;;5.80;99.90;;;;;;4991371;28;20406;-75
2022/02/04 12:20:57;;;;;;;4.13;3.65;;;5.80;99.90;;;;;;4996109;28;20023;-76
2022/02/04 12:23:29;;;;;;;3.80;3.50;;;5.90;99.90;;;;;;5004911;28;20555;-75
2022/02/04 12:26:11;;;;;;;3.63;3.33;;;5.90;99.90;;;;;;5001829;28;20113;-76
2022/02/04 12:28:58;;;;;;;3.33;3.03;;;6.00;99.90;;;;;;4976250;28;20062;-76
2022/02/04 12:31:30;;;;;;;3.72;3.42;;;6.00;99.90;;;;;;5000698;28;20025;-76
2022/02/04 12:34:15;;;;;;;3.50;3.20;;;6.10;99.90;;;;;;4987915;28;20029;-76
2022/02/04 12:36:50;;;;;;;3.10;2.80;;;6.20;99.90;;;;;;4993065;28;20017;-76
2022/02/04 12:39:18;;;;;;;2.47;2.28;;;6.20;99.90;;;;;;4972921;28;20027;-76
2022/02/04 12:41:55;;;;;;;3.58;3.28;;;6.20;99.90;;;;;;4976226;28;20018;-76
2022/02/04 12:44:23;;;;;;;3.58;3.28;;;6.10;99.90;;;;;;4984333;28;20072;-76
2022/02/04 12:46:51;;;;;;;3.92;3.28;;;6.00;99.90;;;;;;4997903;28;20026;-76
2022/02/04 12:49:19;;;;;;;3.13;2.90;;;6.00;99.90;;;;;;5000324;28;20022;-76
2022/02/04 12:51:59;;;;;;;3.22;2.55;;;6.00;99.90;;;;;;4994929;28;20499;-76
2022/02/04 12:54:58;;;;;;;3.88;3.47;;;5.90;99.90;;;;;;4988283;28;20023;-76
2022/02/04 12:57:39;;;;;;;3.30;2.92;;;6.00;99.90;;;;;;4986152;28;20063;-76
2022/02/04 13:08:19;;;;;;;2.92;2.70;;;5.80;99.90;;;;;;4993562;28;20046;-76
2022/02/04 13:10:55;;;;;;;2.85;2.65;;;5.80;99.90;;;;;;4967585;28;20085;-76
2022/02/04 13:13:21;;;;;;;;;;;5.80;99.90;;;;;;4971500;28;20026;-76
2022/02/04 13:15:47;;;;;;;3.33;3.03;;;5.80;99.90;;;;;;4987496;28;20427;-76
2022/02/04 13:18:15;;;;;;;3.60;3.30;;;5.90;99.90;;;;;;4993294;28;20117;-76
2022/02/04 13:20:48;;;;;;;2.80;2.50;;;5.90;99.90;;;;;;4976943;28;20053;-75
2022/02/04 13:23:19;;;;;;;2.60;2.40;;;5.80;99.90;;;;;;4993158;28;20022;-76
2022/02/04 13:25:53;;;;;;;2.70;2.50;;;5.90;99.90;;;;;;4994488;28;20027;-75
2022/02/04 13:28:30;;;;;;;2.60;2.38;;;5.80;99.90;;;;;;4981721;28;20057;-76
2022/02/04 13:31:26;;;;;;;3.03;2.50;;;5.80;99.90;;;;;;4985106;28;20018;-76
2022/02/04 13:33:53;;;;;;;3.15;2.88;;;5.80;99.90;;;;;;4982926;28;20034;-76
2022/02/04 13:36:43;;;;;;;2.80;2.30;;;5.80;99.90;;;;;;4982904;28;20095;-76
2022/02/04 13:45:10;;;;;;;3.10;2.55;;;6.10;99.90;;;;;;4994052;28;20066;-76
2022/02/04 13:52:51;;;;;;;2.03;1.83;;;6.10;99.90;;;;;;4992627;28;20022;-76
2022/02/04 14:01:13;;;;;;;2.60;2.08;;;6.00;99.90;;;;;;4992704;28;20015;-76
2022/02/04 14:03:46;;;;;;;1.77;1.33;;;6.00;99.90;;;;;;4993824;28;20037;-75
2022/02/04 14:06:21;;;;;;;1.60;1.50;;;6.00;99.90;;;;;;4976274;28;20034;-76
2022/02/04 14:08:55;;;;;;;2.00;1.80;;;6.00;99.90;;;;;;4993377;28;20388;-76
2022/02/04 14:11:38;;;;;;;1.30;1.20;;;5.90;99.90;;;;;;4975362;28;20359;-76
2022/02/04 14:14:09;;;;;;;1.77;1.48;;;5.90;99.90;;;;;;4992152;28;20093;-76
2022/02/04 14:16:35;;;;;;;1.45;1.17;;;5.90;99.90;;;;;;4974644;28;20025;-76
2022/02/04 14:19:02;;;;;;;1.48;1.17;;;5.90;99.90;;;;;;4992516;28;20500;-76
2022/02/04 14:21:28;;;;;;;1.80;1.35;;;5.90;99.90;;;;;;4974142;28;20022;-76
2022/02/04 14:23:56;;;;;;;2.58;1.40;;;5.90;99.90;;;;;;4993267;28;20563;-74
2022/02/04 14:26:35;;;;;;;1.33;1.20;;;5.90;99.90;;;;;;4991922;28;20033;-74
2022/02/04 14:29:16;;;;;;;1.88;1.60;;;5.90;99.90;;;;;;4975529;28;20476;-74
2022/02/04 15:01:12;;;;;;;1.45;1.30;;;6.10;99.90;;;;;;4992844;28;20507;-76
2022/02/04 15:03:35;;;;;;;2.35;1.13;;;6.10;99.90;;;;;;4992456;28;20046;-76
2022/02/04 15:06:03;;;;;;;1.20;1.10;;;6.10;99.90;;;;;;4992996;28;20027;-76
2022/02/04 15:08:31;;;;;;;1.20;1.10;;;6.10;99.90;;;;;;4993025;28;20503;-76
2022/02/04 15:11:00;;;;;;;2.25;1.27;;;6.10;99.90;;;;;;4965453;28;20042;-76
2022/02/04 15:13:28;;;;;;;1.35;1.20;;;6.10;99.90;;;;;;4986930;28;20022;-76
2022/02/04 15:15:54;;;;;;;1.20;1.10;;;6.00;99.90;;;;;;4968911;28;20039;-76
2022/02/04 15:18:20;;;;;;;1.30;1.20;;;6.00;99.90;;;;;;4992365;28;20105;-76
2022/02/04 15:20:45;;;;;;;1.30;1.20;;;6.00;99.90;;;;;;4992553;28;20110;-76
2022/02/04 15:23:13;;;;;;;1.30;1.20;;;6.00;99.90;;;;;;4984830;28;20014;-76
2022/02/04 15:25:39;;;;;;;1.20;1.10;;;6.00;99.90;;;;;;4992448;28;20018;-76
2022/02/04 15:30:36;;;;;;;1.50;1.40;;;5.90;99.90;;;;;;4992344;28;20018;-76
2022/02/04 15:33:02;;;;;;;1.52;1.42;;;5.90;99.90;;;;;;4991954;28;20011;-76
2022/02/04 15:35:29;;;;;;;1.50;1.40;;;5.90;99.90;;;;;;4992445;28;20029;-76
2022/02/04 15:37:55;;;;;;;1.70;1.60;;;5.90;99.90;;;;;;4992178;28;20093;-76
2022/02/04 15:40:21;;;;;;;1.67;1.50;;;5.90;99.90;;;;;;4992055;28;20105;-76
2022/02/04 15:42:55;;;;;;;2.63;1.83;;;5.90;99.90;;;;;;4977242;28;20030;-75
2022/02/04 15:58:29;;;;;;;1.67;1.58;;;5.80;99.90;;;;;;4991466;28;20046;-76
2022/02/04 16:03:41;;;;;;;1.83;1.70;;;5.80;99.90;;;;;;4992254;28;20381;-76
2022/02/04 16:06:10;;;;;;;1.50;1.38;;;5.80;99.90;;;;;;4976170;28;20034;-76
2022/02/04 16:08:35;;;;;;;3.83;2.80;;;5.80;99.90;;;;;;4991773;28;20023;-75
2022/02/04 16:11:15;;;;;;;1.50;1.33;;;5.80;99.90;;;;;;4974245;28;20041;-76
2022/02/04 16:13:45;;;;;;;1.63;1.52;;;5.80;99.90;;;;;;4995144;28;20049;-76
2022/02/04 16:19:06;;;;;;;1.45;1.35;;;5.90;99.90;;;;;;4991488;28;20376;-75
2022/02/04 16:22:04;;;;;;;1.85;1.70;;;5.80;99.90;;;;;;4987979;28;20492;-75
2022/02/04 16:24:44;;;;;;;18.00;16.10;;;5.80;99.90;;;;;;4987015;28;20053;-75
2022/02/04 16:28:37;;;;;;;28.08;23.83;;;5.90;99.90;;;;;;4992984;28;20037;-75
2022/02/04 16:29:55;;;;;;;102.97;87.00;;;5.90;99.90;;;;;;4991168;28;20578;-75
2022/02/04 16:32:21;;;;;;;9.20;8.30;;;5.90;99.90;;;;;;4978304;28;20027;-75
2022/02/04 16:34:56;;;;;;;4.95;4.57;;;5.90;99.90;;;;;;4982298;28;20025;-75
2022/02/04 16:37:35;;;;;;;1.90;1.58;;;5.90;99.90;;;;;;4989596;28;20014;-77
2022/02/04 16:40:11;;;;;;;2.47;2.17;;;5.90;99.90;;;;;;4982093;28;20088;-76
2022/02/04 16:42:37;;;;;;;;;;;5.80;99.90;;;;;;4991938;28;20022;-77
2022/02/04 16:45:03;;;;;;;1.90;1.70;;;5.80;99.90;;;;;;4992079;28;20360;-76
2022/02/04 16:47:28;;;;;;;2.08;1.60;;;5.80;99.90;;;;;;4995311;28;20384;-76
2022/02/04 16:49:54;;;;;;;1.92;1.55;;;5.90;99.90;;;;;;4994934;28;20034;-76
2022/02/04 16:52:20;;;;;;;2.00;1.80;;;5.80;99.90;;;;;;4994432;28;20094;-76
2022/02/04 16:54:46;;;;;;;1.80;1.60;;;5.80;99.90;;;;;;4976997;28;20018;-76
2022/02/04 16:57:11;;;;;;;1.85;1.50;;;5.80;99.90;;;;;;4994877;28;20077;-76
2022/02/04 16:59:37;;;;;;;2.17;1.50;;;5.80;99.90;;;;;;4994520;28;20023;-76
2022/02/04 17:02:03;;;;;;;1.63;1.52;;;5.80;99.90;;;;;;4994635;28;20033;-76
2022/02/04 17:04:28;;;;;;;2.17;1.40;;;5.80;99.90;;;;;;4994810;28;20018;-76
2022/02/04 17:06:59;;;;;;;1.40;1.30;;;5.70;99.90;;;;;;4994796;28;20965;-76
2022/02/04 17:09:33;;;;;;;1.70;1.60;;;5.70;99.90;;;;;;4987991;28;20098;-76
2022/02/04 17:12:05;;;;;;;1.45;1.35;;;5.70;99.90;;;;;;4994573;28;20046;-76
2022/02/04 17:14:31;;;;;;;1.63;1.50;;;5.70;99.90;;;;;;4979096;28;20022;-76
2022/02/04 17:16:58;;;;;;;2.08;1.27;;;5.70;99.90;;;;;;4994876;28;20424;-75
2022/02/04 17:19:27;;;;;;;2.13;1.42;;;5.70;99.90;;;;;;4994435;28;20018;-76
2022/02/04 17:21:55;;;;;;;1.45;1.33;;;5.70;99.90;;;;;;4987707;28;20023;-76
2022/02/04 17:24:22;;;;;;;1.50;1.30;;;5.60;99.90;;;;;;4979715;28;20508;-75
2022/02/04 17:26:49;;;;;;;1.20;1.10;;;5.60;99.90;;;;;;4980612;28;20357;-75
2022/02/04 17:29:15;;;;;;;1.30;1.17;;;5.60;99.90;;;;;;4976754;28;20433;-75
2022/02/04 17:31:40;;;;;;;1.52;1.20;;;5.60;99.90;;;;;;4992260;28;20114;-76
2022/02/04 17:34:06;;;;;;;1.13;1.02;;;5.60;99.90;;;;;;4994189;28;20068;-75
2022/02/04 17:36:37;;;;;;;1.20;1.10;;;5.60;99.90;;;;;;4992589;28;20408;-75
2022/02/04 17:39:15;;;;;;;1.05;0.98;;;5.60;99.90;;;;;;4994109;28;20061;-75
2022/02/04 17:41:41;;;;;;;1.40;1.25;;;5.60;99.90;;;;;;4994143;28;20476;-75
2022/02/04 17:44:08;;;;;;;1.23;1.13;;;5.50;99.90;;;;;;4994046;28;20153;-74
2022/02/04 17:46:33;;;;;;;1.23;1.13;;;5.60;99.90;;;;;;4994006;28;20025;-74
2022/02/04 17:49:09;;;;;;;1.60;1.00;;;5.60;99.90;;;;;;4993732;28;20424;-74
2022/02/04 17:54:09;;;;;;;3.05;1.48;;;5.50;99.90;;;;;;4994271;28;20034;-74
2022/02/04 17:57:03;;;;;;;1.15;0.80;;;5.60;99.90;;;;;;4980531;28;20022;-74
2022/02/04 18:02:01;;;;;;;1.10;1.00;;;5.60;99.90;;;;;;4998803;28;20030;-74
2022/02/04 18:09:40;;;;;;;1.50;1.27;;;5.60;99.90;;;;;;4993945;28;20058;-74
2022/02/04 18:12:09;;;;;;;1.20;1.10;;;5.60;99.90;;;;;;4992120;28;20044;-75
2022/02/04 18:14:35;;;;;;;1.77;1.10;;;5.60;99.90;;;;;;4983249;28;20392;-74
2022/02/04 18:17:00;;;;;;;2.95;1.20;;;5.60;99.90;;;;;;4993693;28;20030;-74
2022/02/04 18:19:26;;;;;;;1.83;1.20;;;5.60;99.90;;;;;;4993420;28;20441;-75
2022/02/04 18:21:51;;;;;;;1.63;1.10;;;5.50;99.90;;;;;;4993261;28;20029;-74
2022/02/04 18:24:17;;;;;;;1.27;1.10;;;5.50;99.90;;;;;;4998745;28;20105;-74
2022/02/04 18:26:44;;;;;;;2.03;1.00;;;5.50;99.90;;;;;;5003050;28;20435;-74
2022/02/04 18:29:10;;;;;;;1.42;1.15;;;5.70;99.90;;;;;;4998631;28;20388;-74
2022/02/04 18:31:36;;;;;;;2.00;1.38;;;5.60;99.90;;;;;;5002301;28;20108;-74
2022/02/04 18:34:05;;;;;;;2.00;1.00;;;5.60;99.90;;;;;;4983161;28;20476;-74
2022/02/04 18:36:31;;;;;;;1.20;1.10;;;5.60;99.90;;;;;;4995667;28;20086;-74
2022/02/04 18:40:11;;;;;;;1.50;1.10;;;5.60;99.90;;;;;;4997700;28;20509;-74
2022/02/04 18:42:12;;;;;;;1.30;0.93;;;5.50;99.90;;;;;;4978764;28;20575;-74
2022/02/04 18:44:49;;;;;;;1.20;1.10;;;5.60;99.90;;;;;;4975486;28;20030;-75
2022/02/04 18:47:27;;;;;;;1.10;1.00;;;5.60;99.90;;;;;;4991975;28;20022;-75
2022/02/04 18:50:00;;;;;;;1.20;1.08;;;5.60;99.90;;;;;;4992381;28;20034;-74
2022/02/04 18:57:41;;;;;;;2.08;1.88;;;5.70;99.90;;;;;;4992040;28;20026;-74
2022/02/04 19:00:15;;;;;;;2.42;1.42;;;5.80;99.90;;;;;;4991220;28;20396;-74
2022/02/04 19:02:43;;;;;;;1.52;1.00;;;5.70;99.90;;;;;;4991986;28;20030;-74
2022/02/04 19:05:16;;;;;;;1.20;1.10;;;5.70;99.90;;;;;;4982053;28;20408;-75
2022/02/04 19:07:51;;;;;;;1.67;1.20;;;5.70;99.90;;;;;;4992076;28;20257;-75
2022/02/04 19:10:17;;;;;;;1.10;1.00;;;5.80;99.90;;;;;;4972587;28;20026;-75
2022/02/04 19:13:21;;;;;;;1.65;1.00;;;5.70;99.90;;;;;;4975664;28;20032;-75